Terminal Aerodrome Forecast
Issued by NWS

Home | Current Version | Previous Version | Text Only | Print | Product List | Glossary On
Versions: 1 2 3 4 5 6 7 8 9 10 11 12 13 14 15 16 17 18 19 20 21 22 23 24 25 26 27 28 29 30 31 32 33
924
FTUS43 KLOT 290645 AAA
TAFORD
TAF AMD
KORD 290645Z 2907/3012 36005KT 3SM -DZ BR OVC004
     FM291100 02005KT 2SM BR OVC003
     FM291400 04007KT P6SM OVC008
     FM291600 04010KT P6SM OVC015
     FM292200 05010KT P6SM SCT025
     FM300900 09012KT P6SM SCT025 BKN180=

USA.gov is the U.S. government's official web portal to all federal, state and local government web resources and services.